sensor_id;sensor_type;location;lat;lon;timestamp;P1;durP1;ratioP1;P2;durP2;ratioP2
27822;SDS011;29019;47.630;8.262;2024-02-21T00:03:42;12.98;;;4.72;;
27822;SDS011;29019;47.630;8.262;2024-02-21T00:07:42;12.27;;;4.45;;
27822;SDS011;29019;47.630;8.262;2024-02-21T00:11:43;13.50;;;5.13;;
27822;SDS011;29019;47.630;8.262;2024-02-21T00:15:44;11.10;;;4.70;;
27822;SDS011;29019;47.630;8.262;2024-02-21T00:19:44;10.70;;;4.13;;
27822;SDS011;29019;47.630;8.262;2024-02-21T00:23:45;6.80;;;3.97;;
27822;SDS011;29019;47.630;8.262;2024-02-21T00:27:46;7.85;;;4.13;;
27822;SDS011;29019;47.630;8.262;2024-02-21T00:31:47;10.77;;;5.18;;
27822;SDS011;29019;47.630;8.262;2024-02-21T00:35:49;9.98;;;4.60;;
27822;SDS011;29019;47.630;8.262;2024-02-21T00:39:49;9.40;;;4.43;;
27822;SDS011;29019;47.630;8.262;2024-02-21T00:43:50;32.80;;;9.02;;
27822;SDS011;29019;47.630;8.262;2024-02-21T00:47:51;111.53;;;23.40;;
27822;SDS011;29019;47.630;8.262;2024-02-21T00:51:52;266.75;;;50.95;;
27822;SDS011;29019;47.630;8.262;2024-02-21T00:55:52;188.43;;;41.83;;
27822;SDS011;29019;47.630;8.262;2024-02-21T00:59:54;158.25;;;36.97;;
27822;SDS011;29019;47.630;8.262;2024-02-21T01:03:54;144.45;;;31.65;;
27822;SDS011;29019;47.630;8.262;2024-02-21T01:07:55;120.32;;;29.17;;
27822;SDS011;29019;47.630;8.262;2024-02-21T01:11:56;101.93;;;25.90;;
27822;SDS011;29019;47.630;8.262;2024-02-21T01:15:56;80.10;;;17.80;;
27822;SDS011;29019;47.630;8.262;2024-02-21T01:19:57;55.53;;;13.93;;
27822;SDS011;29019;47.630;8.262;2024-02-21T01:23:58;49.40;;;12.98;;
27822;SDS011;29019;47.630;8.262;2024-02-21T01:27:59;55.65;;;16.30;;
27822;SDS011;29019;47.630;8.262;2024-02-21T01:31:59;46.83;;;13.55;;
27822;SDS011;29019;47.630;8.262;2024-02-21T01:36:03;61.95;;;13.90;;
27822;SDS011;29019;47.630;8.262;2024-02-21T01:40:06;48.50;;;13.80;;
27822;SDS011;29019;47.630;8.262;2024-02-21T01:48:08;52.23;;;13.60;;
27822;SDS011;29019;47.630;8.262;2024-02-21T01:52:09;44.55;;;12.57;;
27822;SDS011;29019;47.630;8.262;2024-02-21T01:56:13;54.40;;;13.88;;
27822;SDS011;29019;47.630;8.262;2024-02-21T02:00:15;48.83;;;14.15;;
27822;SDS011;29019;47.630;8.262;2024-02-21T02:04:17;45.10;;;12.63;;
27822;SDS011;29019;47.630;8.262;2024-02-21T02:08:20;42.35;;;12.52;;
27822;SDS011;29019;47.630;8.262;2024-02-21T02:12:22;44.97;;;13.00;;
27822;SDS011;29019;47.630;8.262;2024-02-21T02:16:24;39.70;;;13.05;;
27822;SDS011;29019;47.630;8.262;2024-02-21T02:20:26;38.92;;;12.32;;
27822;SDS011;29019;47.630;8.262;2024-02-21T02:24:27;49.97;;;13.07;;
27822;SDS011;29019;47.630;8.262;2024-02-21T02:28:27;45.25;;;12.73;;
27822;SDS011;29019;47.630;8.262;2024-02-21T02:32:28;45.95;;;13.25;;
27822;SDS011;29019;47.630;8.262;2024-02-21T02:36:31;44.65;;;12.85;;
27822;SDS011;29019;47.630;8.262;2024-02-21T02:40:33;37.53;;;11.93;;
27822;SDS011;29019;47.630;8.262;2024-02-21T02:44:34;39.97;;;12.73;;
27822;SDS011;29019;47.630;8.262;2024-02-21T02:48:35;47.00;;;11.77;;
27822;SDS011;29019;47.630;8.262;2024-02-21T02:52:37;38.28;;;12.57;;
27822;SDS011;29019;47.630;8.262;2024-02-21T02:56:38;34.13;;;12.13;;
27822;SDS011;29019;47.630;8.262;2024-02-21T03:00:38;35.15;;;12.63;;
27822;SDS011;29019;47.630;8.262;2024-02-21T03:04:39;36.65;;;10.65;;
27822;SDS011;29019;47.630;8.262;2024-02-21T03:08:40;43.55;;;11.93;;
27822;SDS011;29019;47.630;8.262;2024-02-21T03:12:41;34.33;;;11.33;;
27822;SDS011;29019;47.630;8.262;2024-02-21T03:16:42;37.83;;;11.85;;
27822;SDS011;29019;47.630;8.262;2024-02-21T03:20:42;35.90;;;10.57;;
27822;SDS011;29019;47.630;8.262;2024-02-21T03:24:44;37.73;;;10.57;;
27822;SDS011;29019;47.630;8.262;2024-02-21T03:28:44;33.28;;;11.40;;
27822;SDS011;29019;47.630;8.262;2024-02-21T03:32:48;35.53;;;11.18;;
27822;SDS011;29019;47.630;8.262;2024-02-21T03:36:49;36.53;;;11.90;;
27822;SDS011;29019;47.630;8.262;2024-02-21T03:40:49;31.67;;;10.40;;
27822;SDS011;29019;47.630;8.262;2024-02-21T03:44:50;33.95;;;11.55;;
27822;SDS011;29019;47.630;8.262;2024-02-21T03:48:51;36.05;;;9.93;;
27822;SDS011;29019;47.630;8.262;2024-02-21T03:52:51;30.88;;;11.38;;
27822;SDS011;29019;47.630;8.262;2024-02-21T03:56:55;30.65;;;9.68;;
27822;SDS011;29019;47.630;8.262;2024-02-21T04:00:56;29.10;;;10.97;;
27822;SDS011;29019;47.630;8.262;2024-02-21T04:04:57;29.92;;;10.00;;
27822;SDS011;29019;47.630;8.262;2024-02-21T04:08:57;29.37;;;9.07;;
27822;SDS011;29019;47.630;8.262;2024-02-21T04:12:58;33.15;;;10.95;;
27822;SDS011;29019;47.630;8.262;2024-02-21T04:16:59;30.23;;;9.63;;
27822;SDS011;29019;47.630;8.262;2024-02-21T04:21:00;29.75;;;10.35;;
27822;SDS011;29019;47.630;8.262;2024-02-21T04:25:00;25.48;;;9.48;;
27822;SDS011;29019;47.630;8.262;2024-02-21T04:29:01;33.90;;;11.63;;
27822;SDS011;29019;47.630;8.262;2024-02-21T04:33:02;26.38;;;9.73;;
27822;SDS011;29019;47.630;8.262;2024-02-21T04:37:03;25.77;;;10.02;;
27822;SDS011;29019;47.630;8.262;2024-02-21T04:41:04;26.52;;;10.20;;
27822;SDS011;29019;47.630;8.262;2024-02-21T04:45:05;28.23;;;9.07;;
27822;SDS011;29019;47.630;8.262;2024-02-21T04:49:24;20.10;;;8.32;;
27822;SDS011;29019;47.630;8.262;2024-02-21T04:53:25;26.65;;;8.93;;
27822;SDS011;29019;47.630;8.262;2024-02-21T04:57:26;23.00;;;9.13;;
27822;SDS011;29019;47.630;8.262;2024-02-21T05:01:27;24.53;;;8.57;;
27822;SDS011;29019;47.630;8.262;2024-02-21T05:05:28;25.02;;;9.40;;
27822;SDS011;29019;47.630;8.262;2024-02-21T05:09:29;20.08;;;8.70;;
27822;SDS011;29019;47.630;8.262;2024-02-21T05:13:30;25.40;;;8.88;;
27822;SDS011;29019;47.630;8.262;2024-02-21T05:17:30;22.40;;;9.27;;
27822;SDS011;29019;47.630;8.262;2024-02-21T05:21:31;23.27;;;8.65;;
27822;SDS011;29019;47.630;8.262;2024-02-21T05:25:32;25.38;;;8.45;;
27822;SDS011;29019;47.630;8.262;2024-02-21T05:29:33;19.25;;;8.30;;
27822;SDS011;29019;47.630;8.262;2024-02-21T05:37:34;18.47;;;7.33;;
27822;SDS011;29019;47.630;8.262;2024-02-21T05:41:35;22.30;;;8.20;;
27822;SDS011;29019;47.630;8.262;2024-02-21T05:45:36;20.40;;;7.63;;
27822;SDS011;29019;47.630;8.262;2024-02-21T05:49:37;25.05;;;7.70;;
27822;SDS011;29019;47.630;8.262;2024-02-21T05:53:38;24.42;;;8.32;;
27822;SDS011;29019;47.630;8.262;2024-02-21T05:57:40;19.10;;;7.32;;
27822;SDS011;29019;47.630;8.262;2024-02-21T06:01:41;19.77;;;7.80;;
27822;SDS011;29019;47.630;8.262;2024-02-21T06:05:42;20.52;;;7.63;;
27822;SDS011;29019;47.630;8.262;2024-02-21T06:09:43;16.02;;;6.88;;
27822;SDS011;29019;47.630;8.262;2024-02-21T06:17:44;22.07;;;8.43;;
27822;SDS011;29019;47.630;8.262;2024-02-21T06:21:48;21.63;;;7.32;;
27822;SDS011;29019;47.630;8.262;2024-02-21T06:25:49;20.42;;;8.10;;
27822;SDS011;29019;47.630;8.262;2024-02-21T06:29:49;17.15;;;7.03;;
27822;SDS011;29019;47.630;8.262;2024-02-21T06:33:50;14.90;;;7.40;;
27822;SDS011;29019;47.630;8.262;2024-02-21T06:37:51;18.83;;;7.68;;
27822;SDS011;29019;47.630;8.262;2024-02-21T06:41:52;15.30;;;8.00;;
27822;SDS011;29019;47.630;8.262;2024-02-21T06:45:53;17.33;;;6.55;;
27822;SDS011;29019;47.630;8.262;2024-02-21T06:53:55;20.50;;;7.63;;
27822;SDS011;29019;47.630;8.262;2024-02-21T06:57:56;20.80;;;7.95;;
27822;SDS011;29019;47.630;8.262;2024-02-21T07:01:57;19.88;;;7.53;;
27822;SDS011;29019;47.630;8.262;2024-02-21T07:05:57;17.38;;;7.05;;
27822;SDS011;29019;47.630;8.262;2024-02-21T07:09:58;14.82;;;6.15;;
27822;SDS011;29019;47.630;8.262;2024-02-21T07:14:00;17.40;;;6.07;;
27822;SDS011;29019;47.630;8.262;2024-02-21T07:18:01;17.83;;;6.40;;
27822;SDS011;29019;47.630;8.262;2024-02-21T07:22:01;16.42;;;6.53;;
27822;SDS011;29019;47.630;8.262;2024-02-21T07:26:03;17.50;;;6.68;;
27822;SDS011;29019;47.630;8.262;2024-02-21T07:30:04;14.23;;;6.47;;
27822;SDS011;29019;47.630;8.262;2024-02-21T07:34:06;18.52;;;6.10;;
27822;SDS011;29019;47.630;8.262;2024-02-21T07:38:06;15.57;;;7.18;;
27822;SDS011;29019;47.630;8.262;2024-02-21T07:42:08;16.08;;;6.22;;
27822;SDS011;29019;47.630;8.262;2024-02-21T07:46:09;12.90;;;6.07;;
27822;SDS011;29019;47.630;8.262;2024-02-21T07:50:10;16.60;;;6.78;;
27822;SDS011;29019;47.630;8.262;2024-02-21T07:54:10;13.40;;;6.20;;
27822;SDS011;29019;47.630;8.262;2024-02-21T07:58:11;16.98;;;5.47;;
27822;SDS011;29019;47.630;8.262;2024-02-21T08:02:12;15.52;;;6.13;;
27822;SDS011;29019;47.630;8.262;2024-02-21T08:06:15;13.57;;;5.32;;
27822;SDS011;29019;47.630;8.262;2024-02-21T08:10:16;13.75;;;5.47;;
27822;SDS011;29019;47.630;8.262;2024-02-21T08:14:17;13.38;;;5.72;;
27822;SDS011;29019;47.630;8.262;2024-02-21T08:18:17;12.25;;;6.32;;
27822;SDS011;29019;47.630;8.262;2024-02-21T08:22:18;13.73;;;6.40;;
27822;SDS011;29019;47.630;8.262;2024-02-21T08:26:19;12.30;;;5.55;;
27822;SDS011;29019;47.630;8.262;2024-02-21T08:30:19;12.80;;;5.85;;
27822;SDS011;29019;47.630;8.262;2024-02-21T08:34:20;11.73;;;5.20;;
27822;SDS011;29019;47.630;8.262;2024-02-21T08:38:21;16.00;;;6.55;;
27822;SDS011;29019;47.630;8.262;2024-02-21T08:47:05;13.18;;;5.50;;
27822;SDS011;29019;47.630;8.262;2024-02-21T08:51:15;13.45;;;4.55;;
27822;SDS011;29019;47.630;8.262;2024-02-21T08:55:15;10.90;;;4.65;;
27822;SDS011;29019;47.630;8.262;2024-02-21T08:59:16;8.93;;;5.18;;
27822;SDS011;29019;47.630;8.262;2024-02-21T09:03:17;12.68;;;5.50;;
27822;SDS011;29019;47.630;8.262;2024-02-21T09:07:20;12.95;;;5.10;;
27822;SDS011;29019;47.630;8.262;2024-02-21T09:11:20;8.82;;;4.65;;
27822;SDS011;29019;47.630;8.262;2024-02-21T09:15:21;10.13;;;5.20;;
27822;SDS011;29019;47.630;8.262;2024-02-21T09:19:21;9.45;;;4.55;;
27822;SDS011;29019;47.630;8.262;2024-02-21T09:23:25;9.80;;;4.63;;
27822;SDS011;29019;47.630;8.262;2024-02-21T09:27:26;8.95;;;4.22;;
27822;SDS011;29019;47.630;8.262;2024-02-21T09:31:27;10.73;;;4.50;;
27822;SDS011;29019;47.630;8.262;2024-02-21T09:35:28;8.32;;;4.00;;
27822;SDS011;29019;47.630;8.262;2024-02-21T09:39:28;11.63;;;4.68;;
27822;SDS011;29019;47.630;8.262;2024-02-21T09:43:30;9.73;;;5.00;;
27822;SDS011;29019;47.630;8.262;2024-02-21T09:47:34;11.75;;;4.07;;
27822;SDS011;29019;47.630;8.262;2024-02-21T09:52:07;10.68;;;4.82;;
27822;SDS011;29019;47.630;8.262;2024-02-21T09:56:08;9.90;;;4.57;;
27822;SDS011;29019;47.630;8.262;2024-02-21T10:00:09;11.02;;;4.50;;
27822;SDS011;29019;47.630;8.262;2024-02-21T10:04:10;7.65;;;3.45;;
27822;SDS011;29019;47.630;8.262;2024-02-21T10:08:13;9.27;;;4.10;;
27822;SDS011;29019;47.630;8.262;2024-02-21T10:12:15;10.80;;;4.68;;
27822;SDS011;29019;47.630;8.262;2024-02-21T10:16:19;9.05;;;3.97;;
27822;SDS011;29019;47.630;8.262;2024-02-21T10:20:19;9.77;;;3.67;;
27822;SDS011;29019;47.630;8.262;2024-02-21T10:24:25;8.77;;;3.93;;
27822;SDS011;29019;47.630;8.262;2024-02-21T10:28:27;8.02;;;3.58;;
27822;SDS011;29019;47.630;8.262;2024-02-21T10:32:28;7.97;;;4.25;;
27822;SDS011;29019;47.630;8.262;2024-02-21T10:36:30;7.78;;;4.15;;
27822;SDS011;29019;47.630;8.262;2024-02-21T10:40:31;9.13;;;3.85;;
27822;SDS011;29019;47.630;8.262;2024-02-21T10:44:33;8.95;;;4.07;;
27822;SDS011;29019;47.630;8.262;2024-02-21T10:48:42;9.05;;;3.90;;
27822;SDS011;29019;47.630;8.262;2024-02-21T10:52:48;9.43;;;4.25;;
27822;SDS011;29019;47.630;8.262;2024-02-21T10:56:56;9.70;;;3.83;;
27822;SDS011;29019;47.630;8.262;2024-02-21T11:00:58;7.15;;;3.58;;
27822;SDS011;29019;47.630;8.262;2024-02-21T11:04:59;8.85;;;4.00;;
27822;SDS011;29019;47.630;8.262;2024-02-21T11:09:07;7.93;;;3.67;;
27822;SDS011;29019;47.630;8.262;2024-02-21T11:13:08;8.48;;;4.05;;
27822;SDS011;29019;47.630;8.262;2024-02-21T11:17:16;6.40;;;3.90;;
27822;SDS011;29019;47.630;8.262;2024-02-21T11:21:18;7.28;;;3.60;;
27822;SDS011;29019;47.630;8.262;2024-02-21T11:25:22;9.55;;;4.65;;
27822;SDS011;29019;47.630;8.262;2024-02-21T11:29:23;7.55;;;3.65;;
27822;SDS011;29019;47.630;8.262;2024-02-21T11:33:25;7.30;;;3.78;;
27822;SDS011;29019;47.630;8.262;2024-02-21T11:37:27;7.38;;;3.80;;
27822;SDS011;29019;47.630;8.262;2024-02-21T11:41:29;6.15;;;3.60;;
27822;SDS011;29019;47.630;8.262;2024-02-21T11:45:29;5.72;;;3.05;;
27822;SDS011;29019;47.630;8.262;2024-02-21T11:49:35;6.70;;;4.05;;
27822;SDS011;29019;47.630;8.262;2024-02-21T11:53:43;6.63;;;3.47;;
27822;SDS011;29019;47.630;8.262;2024-02-21T11:57:45;6.45;;;3.58;;
27822;SDS011;29019;47.630;8.262;2024-02-21T12:01:50;7.93;;;3.80;;
27822;SDS011;29019;47.630;8.262;2024-02-21T12:05:53;5.55;;;3.33;;
27822;SDS011;29019;47.630;8.262;2024-02-21T12:09:58;6.20;;;3.47;;
27822;SDS011;29019;47.630;8.262;2024-02-21T12:18:05;6.30;;;3.08;;
27822;SDS011;29019;47.630;8.262;2024-02-21T12:22:06;5.55;;;2.85;;
27822;SDS011;29019;47.630;8.262;2024-02-21T12:26:08;4.90;;;2.80;;
27822;SDS011;29019;47.630;8.262;2024-02-21T12:30:09;7.38;;;3.20;;
27822;SDS011;29019;47.630;8.262;2024-02-21T12:34:10;6.55;;;2.80;;
27822;SDS011;29019;47.630;8.262;2024-02-21T12:38:11;8.07;;;3.38;;
27822;SDS011;29019;47.630;8.262;2024-02-21T12:42:13;6.88;;;2.65;;
27822;SDS011;29019;47.630;8.262;2024-02-21T12:46:14;6.22;;;2.80;;
27822;SDS011;29019;47.630;8.262;2024-02-21T12:50:15;5.13;;;2.55;;
27822;SDS011;29019;47.630;8.262;2024-02-21T12:54:15;7.63;;;3.42;;
27822;SDS011;29019;47.630;8.262;2024-02-21T12:58:16;4.03;;;2.47;;
27822;SDS011;29019;47.630;8.262;2024-02-21T13:02:17;5.93;;;3.00;;
27822;SDS011;29019;47.630;8.262;2024-02-21T13:06:18;5.90;;;2.97;;
27822;SDS011;29019;47.630;8.262;2024-02-21T13:10:19;6.75;;;3.20;;
27822;SDS011;29019;47.630;8.262;2024-02-21T13:14:19;5.72;;;2.58;;
27822;SDS011;29019;47.630;8.262;2024-02-21T13:18:21;5.40;;;2.55;;
27822;SDS011;29019;47.630;8.262;2024-02-21T13:22:22;5.03;;;3.17;;
27822;SDS011;29019;47.630;8.262;2024-02-21T13:26:25;5.72;;;3.13;;
27822;SDS011;29019;47.630;8.262;2024-02-21T13:30:26;4.75;;;2.53;;
27822;SDS011;29019;47.630;8.262;2024-02-21T13:34:27;6.03;;;2.95;;
27822;SDS011;29019;47.630;8.262;2024-02-21T13:38:28;5.97;;;3.03;;
27822;SDS011;29019;47.630;8.262;2024-02-21T13:42:28;5.68;;;2.15;;
27822;SDS011;29019;47.630;8.262;2024-02-21T13:50:30;5.50;;;2.53;;
27822;SDS011;29019;47.630;8.262;2024-02-21T13:54:32;3.67;;;1.95;;
27822;SDS011;29019;47.630;8.262;2024-02-21T13:58:32;4.85;;;2.30;;
27822;SDS011;29019;47.630;8.262;2024-02-21T14:02:33;4.27;;;2.70;;
27822;SDS011;29019;47.630;8.262;2024-02-21T14:06:34;4.80;;;2.50;;
27822;SDS011;29019;47.630;8.262;2024-02-21T14:14:37;4.55;;;2.47;;
27822;SDS011;29019;47.630;8.262;2024-02-21T14:18:37;5.70;;;2.70;;
27822;SDS011;29019;47.630;8.262;2024-02-21T14:22:41;5.13;;;2.45;;
27822;SDS011;29019;47.630;8.262;2024-02-21T14:26:41;4.47;;;2.13;;
27822;SDS011;29019;47.630;8.262;2024-02-21T14:30:42;4.45;;;2.30;;
27822;SDS011;29019;47.630;8.262;2024-02-21T14:34:43;5.88;;;3.42;;
27822;SDS011;29019;47.630;8.262;2024-02-21T14:38:44;3.22;;;2.00;;
27822;SDS011;29019;47.630;8.262;2024-02-21T14:42:44;4.93;;;2.13;;
27822;SDS011;29019;47.630;8.262;2024-02-21T14:46:45;4.05;;;2.38;;
27822;SDS011;29019;47.630;8.262;2024-02-21T14:50:47;3.30;;;2.03;;
27822;SDS011;29019;47.630;8.262;2024-02-21T14:58:51;3.67;;;2.30;;
27822;SDS011;29019;47.630;8.262;2024-02-21T15:02:52;3.28;;;1.90;;
27822;SDS011;29019;47.630;8.262;2024-02-21T15:06:53;2.78;;;1.88;;
27822;SDS011;29019;47.630;8.262;2024-02-21T15:10:54;4.40;;;2.30;;
27822;SDS011;29019;47.630;8.262;2024-02-21T15:14:55;4.35;;;2.42;;
27822;SDS011;29019;47.630;8.262;2024-02-21T15:18:55;2.95;;;1.90;;
27822;SDS011;29019;47.630;8.262;2024-02-21T15:22:56;4.30;;;2.55;;
27822;SDS011;29019;47.630;8.262;2024-02-21T15:26:57;3.30;;;1.98;;
27822;SDS011;29019;47.630;8.262;2024-02-21T15:30:58;3.70;;;2.10;;
27822;SDS011;29019;47.630;8.262;2024-02-21T15:34:58;4.22;;;2.20;;
27822;SDS011;29019;47.630;8.262;2024-02-21T15:38:59;3.63;;;2.08;;
27822;SDS011;29019;47.630;8.262;2024-02-21T15:43:02;4.07;;;2.08;;
27822;SDS011;29019;47.630;8.262;2024-02-21T15:51:04;3.53;;;1.83;;
27822;SDS011;29019;47.630;8.262;2024-02-21T15:55:06;3.97;;;2.15;;
27822;SDS011;29019;47.630;8.262;2024-02-21T15:59:12;3.55;;;1.83;;
27822;SDS011;29019;47.630;8.262;2024-02-21T16:03:12;4.28;;;2.10;;
27822;SDS011;29019;47.630;8.262;2024-02-21T16:07:13;4.38;;;2.38;;
27822;SDS011;29019;47.630;8.262;2024-02-21T16:11:14;3.28;;;1.75;;
27822;SDS011;29019;47.630;8.262;2024-02-21T16:15:18;3.78;;;2.30;;
27822;SDS011;29019;47.630;8.262;2024-02-21T16:19:18;3.40;;;1.95;;
27822;SDS011;29019;47.630;8.262;2024-02-21T16:23:19;2.63;;;1.50;;
27822;SDS011;29019;47.630;8.262;2024-02-21T16:27:20;3.50;;;2.08;;
27822;SDS011;29019;47.630;8.262;2024-02-21T16:31:20;4.30;;;2.00;;
27822;SDS011;29019;47.630;8.262;2024-02-21T16:35:21;2.78;;;1.85;;
27822;SDS011;29019;47.630;8.262;2024-02-21T16:39:22;3.45;;;2.13;;
27822;SDS011;29019;47.630;8.262;2024-02-21T16:43:23;3.20;;;1.58;;
27822;SDS011;29019;47.630;8.262;2024-02-21T16:47:24;2.55;;;1.65;;
27822;SDS011;29019;47.630;8.262;2024-02-21T16:51:25;2.42;;;1.85;;
27822;SDS011;29019;47.630;8.262;2024-02-21T16:55:25;2.72;;;1.60;;
27822;SDS011;29019;47.630;8.262;2024-02-21T16:59:26;2.20;;;1.63;;
27822;SDS011;29019;47.630;8.262;2024-02-21T17:03:27;2.90;;;1.45;;
27822;SDS011;29019;47.630;8.262;2024-02-21T17:07:27;3.40;;;1.85;;
27822;SDS011;29019;47.630;8.262;2024-02-21T17:11:29;2.28;;;1.52;;
27822;SDS011;29019;47.630;8.262;2024-02-21T17:15:29;3.38;;;2.00;;
27822;SDS011;29019;47.630;8.262;2024-02-21T17:19:30;2.17;;;1.55;;
27822;SDS011;29019;47.630;8.262;2024-02-21T17:23:31;3.22;;;1.88;;
27822;SDS011;29019;47.630;8.262;2024-02-21T17:27:32;2.20;;;1.50;;
27822;SDS011;29019;47.630;8.262;2024-02-21T17:31:33;2.03;;;1.38;;
27822;SDS011;29019;47.630;8.262;2024-02-21T17:35:33;3.33;;;1.95;;
27822;SDS011;29019;47.630;8.262;2024-02-21T17:39:35;1.98;;;1.17;;
27822;SDS011;29019;47.630;8.262;2024-02-21T17:43:35;3.35;;;1.70;;
27822;SDS011;29019;47.630;8.262;2024-02-21T17:47:36;3.25;;;2.03;;
27822;SDS011;29019;47.630;8.262;2024-02-21T17:51:37;2.30;;;1.80;;
27822;SDS011;29019;47.630;8.262;2024-02-21T17:55:38;1.95;;;1.40;;
27822;SDS011;29019;47.630;8.262;2024-02-21T17:59:39;2.00;;;1.23;;
27822;SDS011;29019;47.630;8.262;2024-02-21T18:03:44;4.45;;;2.10;;
27822;SDS011;29019;47.630;8.262;2024-02-21T18:07:45;2.45;;;1.40;;
27822;SDS011;29019;47.630;8.262;2024-02-21T18:11:46;2.35;;;1.40;;
27822;SDS011;29019;47.630;8.262;2024-02-21T18:15:47;3.45;;;1.45;;
27822;SDS011;29019;47.630;8.262;2024-02-21T18:19:48;3.72;;;2.08;;
27822;SDS011;29019;47.630;8.262;2024-02-21T18:23:48;2.33;;;1.50;;
27822;SDS011;29019;47.630;8.262;2024-02-21T18:27:49;2.22;;;1.55;;
27822;SDS011;29019;47.630;8.262;2024-02-21T18:31:51;2.70;;;1.35;;
27822;SDS011;29019;47.630;8.262;2024-02-21T18:35:52;2.28;;;1.40;;
27822;SDS011;29019;47.630;8.262;2024-02-21T18:39:53;2.40;;;1.67;;
27822;SDS011;29019;47.630;8.262;2024-02-21T18:43:54;2.45;;;1.40;;
27822;SDS011;29019;47.630;8.262;2024-02-21T18:47:55;2.55;;;1.42;;
27822;SDS011;29019;47.630;8.262;2024-02-21T18:51:56;3.70;;;1.60;;
27822;SDS011;29019;47.630;8.262;2024-02-21T18:55:56;1.73;;;1.00;;
27822;SDS011;29019;47.630;8.262;2024-02-21T18:59:57;3.40;;;1.55;;
27822;SDS011;29019;47.630;8.262;2024-02-21T19:03:58;1.70;;;1.40;;
27822;SDS011;29019;47.630;8.262;2024-02-21T19:07:58;2.67;;;1.40;;
27822;SDS011;29019;47.630;8.262;2024-02-21T19:11:59;3.05;;;1.75;;
27822;SDS011;29019;47.630;8.262;2024-02-21T19:16:00;2.53;;;1.50;;
27822;SDS011;29019;47.630;8.262;2024-02-21T19:20:01;2.72;;;1.58;;
27822;SDS011;29019;47.630;8.262;2024-02-21T19:24:02;2.63;;;1.65;;
27822;SDS011;29019;47.630;8.262;2024-02-21T19:28:02;2.20;;;1.27;;
27822;SDS011;29019;47.630;8.262;2024-02-21T19:32:03;3.10;;;1.60;;
27822;SDS011;29019;47.630;8.262;2024-02-21T19:36:04;2.83;;;1.52;;
27822;SDS011;29019;47.630;8.262;2024-02-21T19:40:06;1.80;;;1.20;;
27822;SDS011;29019;47.630;8.262;2024-02-21T19:44:07;1.88;;;1.20;;
27822;SDS011;29019;47.630;8.262;2024-02-21T19:48:08;2.47;;;1.15;;
27822;SDS011;29019;47.630;8.262;2024-02-21T19:52:09;2.97;;;1.35;;
27822;SDS011;29019;47.630;8.262;2024-02-21T19:56:10;2.67;;;1.45;;
27822;SDS011;29019;47.630;8.262;2024-02-21T20:00:14;2.00;;;1.10;;
27822;SDS011;29019;47.630;8.262;2024-02-21T20:04:15;1.77;;;1.27;;
27822;SDS011;29019;47.630;8.262;2024-02-21T20:08:16;2.00;;;1.50;;
27822;SDS011;29019;47.630;8.262;2024-02-21T20:12:17;2.28;;;1.35;;
27822;SDS011;29019;47.630;8.262;2024-02-21T20:16:18;3.13;;;1.48;;
27822;SDS011;29019;47.630;8.262;2024-02-21T20:20:19;1.90;;;1.17;;
27822;SDS011;29019;47.630;8.262;2024-02-21T20:24:22;2.88;;;1.50;;
27822;SDS011;29019;47.630;8.262;2024-02-21T20:32:24;2.13;;;1.25;;
27822;SDS011;29019;47.630;8.262;2024-02-21T20:36:25;2.25;;;1.27;;
27822;SDS011;29019;47.630;8.262;2024-02-21T20:40:25;1.65;;;1.15;;
27822;SDS011;29019;47.630;8.262;2024-02-21T20:44:26;3.22;;;1.40;;
27822;SDS011;29019;47.630;8.262;2024-02-21T20:48:27;1.95;;;0.90;;
27822;SDS011;29019;47.630;8.262;2024-02-21T20:52:30;2.08;;;1.00;;
27822;SDS011;29019;47.630;8.262;2024-02-21T20:56:30;1.80;;;1.35;;
27822;SDS011;29019;47.630;8.262;2024-02-21T21:00:31;2.10;;;1.40;;
27822;SDS011;29019;47.630;8.262;2024-02-21T21:04:33;1.88;;;1.20;;
27822;SDS011;29019;47.630;8.262;2024-02-21T21:08:34;2.08;;;1.20;;
27822;SDS011;29019;47.630;8.262;2024-02-21T21:12:35;1.85;;;1.35;;
27822;SDS011;29019;47.630;8.262;2024-02-21T21:16:35;1.27;;;1.08;;
27822;SDS011;29019;47.630;8.262;2024-02-21T21:20:36;2.80;;;1.45;;
27822;SDS011;29019;47.630;8.262;2024-02-21T21:24:37;1.83;;;1.10;;
27822;SDS011;29019;47.630;8.262;2024-02-21T21:28:38;2.35;;;1.25;;
27822;SDS011;29019;47.630;8.262;2024-02-21T21:32:38;2.00;;;1.10;;
27822;SDS011;29019;47.630;8.262;2024-02-21T21:36:40;1.67;;;1.20;;
27822;SDS011;29019;47.630;8.262;2024-02-21T21:40:40;1.55;;;1.30;;
27822;SDS011;29019;47.630;8.262;2024-02-21T21:44:45;2.00;;;1.05;;
27822;SDS011;29019;47.630;8.262;2024-02-21T21:48:46;1.55;;;1.30;;
27822;SDS011;29019;47.630;8.262;2024-02-21T21:52:47;1.20;;;1.00;;
27822;SDS011;29019;47.630;8.262;2024-02-21T21:56:47;1.75;;;0.98;;
27822;SDS011;29019;47.630;8.262;2024-02-21T22:00:48;1.45;;;1.10;;
27822;SDS011;29019;47.630;8.262;2024-02-21T22:04:50;2.10;;;1.35;;
27822;SDS011;29019;47.630;8.262;2024-02-21T22:08:51;1.42;;;1.08;;
27822;SDS011;29019;47.630;8.262;2024-02-21T22:12:52;1.98;;;1.05;;
27822;SDS011;29019;47.630;8.262;2024-02-21T22:16:52;1.23;;;1.00;;
27822;SDS011;29019;47.630;8.262;2024-02-21T22:20:53;1.92;;;1.33;;
27822;SDS011;29019;47.630;8.262;2024-02-21T22:24:54;1.40;;;0.98;;
27822;SDS011;29019;47.630;8.262;2024-02-21T22:28:55;1.30;;;0.98;;
27822;SDS011;29019;47.630;8.262;2024-02-21T22:32:57;1.05;;;0.95;;
27822;SDS011;29019;47.630;8.262;2024-02-21T22:36:58;1.70;;;1.08;;
27822;SDS011;29019;47.630;8.262;2024-02-21T22:40:58;1.90;;;0.95;;
27822;SDS011;29019;47.630;8.262;2024-02-21T22:44:59;1.52;;;1.17;;
27822;SDS011;29019;47.630;8.262;2024-02-21T22:49:00;2.58;;;1.35;;
27822;SDS011;29019;47.630;8.262;2024-02-21T22:53:00;1.02;;;0.90;;
27822;SDS011;29019;47.630;8.262;2024-02-21T22:57:01;1.63;;;1.10;;
27822;SDS011;29019;47.630;8.262;2024-02-21T23:01:02;1.63;;;0.90;;
27822;SDS011;29019;47.630;8.262;2024-02-21T23:05:04;2.08;;;1.00;;
27822;SDS011;29019;47.630;8.262;2024-02-21T23:09:04;1.55;;;1.10;;
27822;SDS011;29019;47.630;8.262;2024-02-21T23:13:05;1.45;;;1.10;;
27822;SDS011;29019;47.630;8.262;2024-02-21T23:17:06;1.48;;;1.08;;
27822;SDS011;29019;47.630;8.262;2024-02-21T23:21:09;2.20;;;1.10;;
27822;SDS011;29019;47.630;8.262;2024-02-21T23:25:11;1.20;;;1.05;;
27822;SDS011;29019;47.630;8.262;2024-02-21T23:29:12;1.70;;;1.30;;
27822;SDS011;29019;47.630;8.262;2024-02-21T23:33:13;1.20;;;0.85;;
27822;SDS011;29019;47.630;8.262;2024-02-21T23:37:13;1.25;;;1.05;;
27822;SDS011;29019;47.630;8.262;2024-02-21T23:41:14;1.48;;;1.25;;
27822;SDS011;29019;47.630;8.262;2024-02-21T23:45:18;1.20;;;0.80;;
27822;SDS011;29019;47.630;8.262;2024-02-21T23:49:19;1.83;;;0.93;;
27822;SDS011;29019;47.630;8.262;2024-02-21T23:53:19;1.98;;;1.10;;
27822;SDS011;29019;47.630;8.262;2024-02-21T23:57:20;1.10;;;0.90;;
